createdAt,value
2022-10-25T00:00:45.261Z,0.00
2022-10-25T00:01:45.994Z,0.00
2022-10-25T00:02:46.760Z,0.00
2022-10-25T00:03:47.410Z,0.00
2022-10-25T00:04:48.131Z,0.00
2022-10-25T00:05:48.737Z,0.00
2022-10-25T00:06:49.329Z,0.00
2022-10-25T00:07:49.945Z,0.00
2022-10-25T00:08:50.530Z,0.00
2022-10-25T00:09:51.223Z,0.00
2022-10-25T00:10:51.822Z,0.00
2022-10-25T00:11:52.424Z,0.00
2022-10-25T00:12:53.016Z,0.00
2022-10-25T00:13:53.603Z,0.00
2022-10-25T00:14:54.248Z,0.00
2022-10-25T00:15:54.837Z,0.00
2022-10-25T00:16:55.431Z,0.00
2022-10-25T00:17:56.042Z,0.00
2022-10-25T00:18:56.637Z,0.00
2022-10-25T00:19:57.361Z,0.00
2022-10-25T00:20:57.981Z,0.00
2022-10-25T00:21:58.593Z,0.00
2022-10-25T00:22:59.177Z,0.00
2022-10-25T00:23:59.776Z,0.00
2022-10-25T00:25:00.484Z,0.00
2022-10-25T00:26:01.072Z,0.00
2022-10-25T00:27:01.665Z,0.00
2022-10-25T00:28:02.262Z,0.00
2022-10-25T00:29:02.855Z,0.00
2022-10-25T00:30:03.591Z,0.00
2022-10-25T00:31:04.176Z,0.00
2022-10-25T00:32:04.759Z,0.00
2022-10-25T00:33:05.395Z,0.00
2022-10-25T00:34:05.975Z,0.00
2022-10-25T00:35:06.703Z,0.00
2022-10-25T00:36:07.300Z,0.00
2022-10-25T00:37:07.881Z,0.00
2022-10-25T00:38:08.481Z,0.00
2022-10-25T00:39:09.099Z,0.00
2022-10-25T00:40:09.737Z,0.00
2022-10-25T00:41:10.324Z,0.00
2022-10-25T00:42:10.907Z,0.00
2022-10-25T00:43:11.493Z,0.00
2022-10-25T00:44:12.096Z,0.00
2022-10-25T00:45:12.727Z,0.00
2022-10-25T00:46:13.311Z,0.00
2022-10-25T00:47:13.902Z,0.00
2022-10-25T00:48:14.516Z,0.00
2022-10-25T00:49:15.106Z,0.00
2022-10-25T00:50:15.812Z,0.00
2022-10-25T00:51:16.405Z,0.00
2022-10-25T00:52:16.998Z,0.00
2022-10-25T00:53:17.584Z,0.00
2022-10-25T00:54:18.196Z,0.00
2022-10-25T00:55:18.871Z,0.00
2022-10-25T00:56:19.513Z,0.00
2022-10-25T00:57:20.103Z,0.00
2022-10-25T00:58:20.686Z,0.00
2022-10-25T00:59:21.288Z,0.00
2022-10-25T01:00:21.988Z,0.00
2022-10-25T01:01:22.708Z,0.00
2022-10-25T01:02:23.418Z,0.00
2022-10-25T01:03:24.117Z,0.00
2022-10-25T01:04:24.711Z,0.00
2022-10-25T01:05:25.485Z,0.00
2022-10-25T01:06:26.069Z,0.00
2022-10-25T01:07:26.665Z,0.00
2022-10-25T01:08:27.259Z,0.00
2022-10-25T01:09:27.850Z,0.00
2022-10-25T01:10:28.528Z,0.00
2022-10-25T01:11:29.129Z,0.00
2022-10-25T01:12:29.721Z,0.00
2022-10-25T01:13:30.315Z,0.00
2022-10-25T01:14:30.908Z,0.00
2022-10-25T01:15:31.595Z,0.00
2022-10-25T01:16:32.183Z,0.00
2022-10-25T01:17:32.776Z,0.00
2022-10-25T01:18:33.382Z,0.00
2022-10-25T01:20:33.590Z,0.00
2022-10-25T01:21:35.180Z,0.00
2022-10-25T01:22:35.786Z,0.00
2022-10-25T01:23:36.379Z,0.00
2022-10-25T01:24:36.970Z,0.00
2022-10-25T01:25:37.694Z,0.00
2022-10-25T01:26:38.319Z,0.00
2022-10-25T01:27:38.905Z,0.00
2022-10-25T01:28:39.512Z,0.00
2022-10-25T01:29:40.106Z,0.00
2022-10-25T01:30:40.788Z,0.00
2022-10-25T01:31:41.388Z,0.00
2022-10-25T01:32:41.979Z,0.00
2022-10-25T01:33:42.596Z,0.00
2022-10-25T01:34:43.177Z,0.00
2022-10-25T01:35:43.848Z,0.00
2022-10-25T01:36:44.440Z,0.00
2022-10-25T01:37:45.353Z,0.00
2022-10-25T01:38:45.554Z,0.00
2022-10-25T01:39:46.153Z,0.00
2022-10-25T01:40:46.791Z,0.00
2022-10-25T01:41:47.407Z,0.00
2022-10-25T01:42:48.008Z,0.00
2022-10-25T01:43:48.598Z,0.00
2022-10-25T01:44:49.187Z,0.00
2022-10-25T01:45:49.977Z,0.00
2022-10-25T01:46:50.570Z,0.00
2022-10-25T01:47:51.161Z,0.00
2022-10-25T01:48:51.783Z,0.00
2022-10-25T01:49:52.371Z,0.00
2022-10-25T01:50:53.072Z,0.00
2022-10-25T01:51:53.667Z,0.00
2022-10-25T01:53:53.839Z,0.00
2022-10-25T01:54:55.435Z,0.00
2022-10-25T01:55:56.087Z,0.00
2022-10-25T01:56:56.682Z,0.00
2022-10-25T01:57:57.267Z,0.00
2022-10-25T01:58:57.847Z,0.00
2022-10-25T01:59:58.446Z,0.00
2022-10-25T02:00:59.286Z,0.00
2022-10-25T02:01:59.952Z,0.00
2022-10-25T02:03:00.567Z,0.00
2022-10-25T02:04:01.195Z,0.00
2022-10-25T02:05:01.789Z,0.00
2022-10-25T02:06:02.470Z,0.00
2022-10-25T02:07:03.077Z,0.00
2022-10-25T02:08:03.685Z,0.00
2022-10-25T02:09:04.283Z,0.00
2022-10-25T02:11:04.581Z,0.00
2022-10-25T02:12:06.186Z,0.00
2022-10-25T02:13:06.780Z,0.00
2022-10-25T02:14:07.374Z,0.00
2022-10-25T02:15:07.977Z,0.00
2022-10-25T02:16:08.764Z,0.00
2022-10-25T02:17:09.377Z,0.00
2022-10-25T02:18:09.966Z,0.00
2022-10-25T02:19:10.589Z,0.00
2022-10-25T02:20:11.182Z,0.00
2022-10-25T02:21:11.948Z,0.00
2022-10-25T02:22:12.543Z,0.00
2022-10-25T02:23:13.151Z,0.00
2022-10-25T02:24:13.743Z,0.00
2022-10-25T02:25:14.337Z,0.00
2022-10-25T02:26:15.143Z,0.00
2022-10-25T02:27:15.743Z,0.00
2022-10-25T02:28:16.329Z,0.00
2022-10-25T02:29:16.927Z,0.00
2022-10-25T02:30:17.523Z,0.00
2022-10-25T02:31:18.274Z,0.00
2022-10-25T02:32:18.874Z,0.00
2022-10-25T02:33:19.474Z,0.00
2022-10-25T02:34:20.091Z,0.00
2022-10-25T02:35:20.680Z,0.00
2022-10-25T02:36:21.351Z,0.00
2022-10-25T02:37:21.942Z,0.00
2022-10-25T02:38:22.547Z,0.00
2022-10-25T02:39:26.398Z,0.00
2022-10-25T02:40:24.065Z,0.00
2022-10-25T02:41:24.717Z,0.00
2022-10-25T02:42:25.326Z,0.00
2022-10-25T02:43:25.992Z,0.00
2022-10-25T02:44:26.639Z,0.00
2022-10-25T02:45:27.236Z,0.00
2022-10-25T02:46:27.883Z,0.00
2022-10-25T02:47:28.479Z,0.00
2022-10-25T02:48:29.073Z,0.00
2022-10-25T02:49:29.707Z,0.00
2022-10-25T02:50:30.299Z,0.00
2022-10-25T02:51:31.115Z,0.00
2022-10-25T02:52:31.700Z,0.00
2022-10-25T02:53:32.289Z,0.00
2022-10-25T02:54:32.883Z,0.00
2022-10-25T02:55:33.485Z,0.00
2022-10-25T02:56:34.136Z,0.00
2022-10-25T02:57:34.731Z,0.00
2022-10-25T02:58:35.327Z,0.00
2022-10-25T02:59:35.930Z,0.00
2022-10-25T03:00:36.612Z,0.00
2022-10-25T03:01:37.326Z,0.00
2022-10-25T03:02:37.954Z,0.00
2022-10-25T03:03:38.543Z,0.00
2022-10-25T03:04:39.169Z,0.00
2022-10-25T03:05:39.768Z,0.00
2022-10-25T03:06:40.487Z,0.00
2022-10-25T03:07:41.086Z,0.00
2022-10-25T03:08:41.681Z,0.00
2022-10-25T03:09:42.269Z,0.00
2022-10-25T03:10:42.857Z,0.00
2022-10-25T03:11:43.600Z,0.00
2022-10-25T03:12:44.564Z,0.00
2022-10-25T03:13:44.807Z,0.00
2022-10-25T03:14:45.402Z,0.00
2022-10-25T03:15:45.984Z,0.00
2022-10-25T03:17:46.798Z,0.00
2022-10-25T03:18:48.147Z,0.00
2022-10-25T03:19:48.768Z,0.00
2022-10-25T03:20:49.353Z,0.00
2022-10-25T03:21:50.671Z,0.00
2022-10-25T03:22:50.757Z,0.00
2022-10-25T03:23:51.348Z,0.00
2022-10-25T03:24:51.937Z,0.00
2022-10-25T03:25:54.290Z,0.00
2022-10-25T03:26:53.289Z,0.00
2022-10-25T03:27:53.875Z,0.00
2022-10-25T03:28:54.473Z,0.00
2022-10-25T03:29:55.075Z,0.00
2022-10-25T03:30:55.665Z,0.00
2022-10-25T03:31:56.340Z,0.00
2022-10-25T03:32:56.939Z,0.00
2022-10-25T03:33:57.529Z,0.00
2022-10-25T03:34:58.160Z,0.00
2022-10-25T03:35:58.748Z,0.00
2022-10-25T03:36:59.488Z,0.00
2022-10-25T03:38:00.089Z,0.00
2022-10-25T03:39:00.697Z,0.00
2022-10-25T03:40:01.299Z,0.00
2022-10-25T03:41:01.909Z,0.00
2022-10-25T03:42:02.601Z,0.00
2022-10-25T03:43:03.210Z,0.00
2022-10-25T03:44:03.795Z,0.00
2022-10-25T03:45:04.395Z,0.00
2022-10-25T03:46:04.993Z,0.00
2022-10-25T03:47:05.643Z,0.00
2022-10-25T03:48:06.240Z,0.00
2022-10-25T03:49:06.829Z,0.00
2022-10-25T03:50:07.443Z,0.00
2022-10-25T03:51:08.040Z,0.00
2022-10-25T03:52:08.775Z,0.00
2022-10-25T03:54:08.966Z,0.00
2022-10-25T03:55:10.589Z,0.00
2022-10-25T03:56:11.173Z,0.00
2022-10-25T03:57:11.807Z,0.00
2022-10-25T03:58:12.393Z,0.00
2022-10-25T03:59:12.989Z,0.00
2022-10-25T04:00:13.580Z,0.00
2022-10-25T04:01:14.370Z,0.00
2022-10-25T04:02:15.205Z,0.00
2022-10-25T04:03:15.823Z,0.00
2022-10-25T04:04:16.443Z,0.00
2022-10-25T04:05:17.067Z,0.00
2022-10-25T04:06:17.663Z,0.00
2022-10-25T04:07:18.338Z,0.00
2022-10-25T04:08:18.951Z,0.00
2022-10-25T04:09:19.539Z,0.00
2022-10-25T04:10:20.135Z,0.00
2022-10-25T04:11:20.737Z,0.00
2022-10-25T04:12:21.533Z,0.00
2022-10-25T04:13:22.078Z,0.00
2022-10-25T04:14:22.678Z,0.00
2022-10-25T04:15:23.270Z,0.00
2022-10-25T04:16:23.862Z,0.00
2022-10-25T04:17:24.501Z,0.00
2022-10-25T04:18:25.099Z,0.00
2022-10-25T04:19:25.651Z,0.00
2022-10-25T04:20:26.217Z,0.00
2022-10-25T04:21:26.750Z,0.00
2022-10-25T04:22:27.369Z,0.00
2022-10-25T04:23:27.967Z,0.00
2022-10-25T04:24:28.521Z,0.00
2022-10-25T04:25:29.062Z,0.00
2022-10-25T04:26:29.594Z,0.00
2022-10-25T04:27:30.255Z,0.00
2022-10-25T04:28:30.796Z,0.00
2022-10-25T04:29:31.338Z,0.00
2022-10-25T04:30:35.163Z,0.00
2022-10-25T04:31:32.753Z,0.00
2022-10-25T04:32:33.357Z,0.00
2022-10-25T04:33:34.756Z,0.00
2022-10-25T04:34:34.804Z,0.00
2022-10-25T04:35:35.453Z,0.00
2022-10-25T04:36:36.234Z,0.00
2022-10-25T04:37:36.838Z,0.00
2022-10-25T04:38:37.380Z,5.62
2022-10-25T04:39:37.939Z,5.62
2022-10-25T04:40:38.493Z,5.62
2022-10-25T04:42:01.240Z,5.62
2022-10-25T04:42:40.894Z,5.62
2022-10-25T04:43:40.833Z,5.62
2022-10-25T04:44:41.550Z,11.25
2022-10-25T04:45:42.418Z,11.25
2022-10-25T04:46:46.372Z,11.25
2022-10-25T04:47:43.913Z,11.25
2022-10-25T04:48:44.462Z,11.25
2022-10-25T04:49:45.039Z,11.25
2022-10-25T04:50:45.888Z,16.88
2022-10-25T04:51:46.464Z,16.88
2022-10-25T04:52:47.648Z,16.88
2022-10-25T04:53:47.899Z,16.88
2022-10-25T04:54:48.440Z,22.50
2022-10-25T04:55:49.747Z,22.50
2022-10-25T04:56:49.797Z,22.50
2022-10-25T04:57:50.424Z,22.50
2022-10-25T04:58:51.008Z,28.12
2022-10-25T04:59:51.540Z,28.12
2022-10-25T05:00:52.083Z,28.12
2022-10-25T05:01:52.675Z,28.12
2022-10-25T05:03:02.786Z,33.75
2022-10-25T05:03:54.365Z,33.75
2022-10-25T05:04:54.920Z,33.75
2022-10-25T05:05:58.236Z,33.75
2022-10-25T05:06:56.281Z,39.38
2022-10-25T05:07:56.839Z,39.38
2022-10-25T05:08:57.469Z,39.38
2022-10-25T05:09:58.347Z,39.38
2022-10-25T05:10:58.969Z,45.00
2022-10-25T05:12:00.261Z,45.00
2022-10-25T05:13:00.592Z,45.00
2022-10-25T05:14:04.032Z,45.00
2022-10-25T05:15:02.967Z,50.62
2022-10-25T05:16:19.426Z,50.62
2022-10-25T05:17:15.364Z,50.62
2022-10-25T05:18:04.436Z,50.62
2022-10-25T05:19:05.179Z,56.25
2022-10-25T05:20:05.747Z,56.25
2022-10-25T05:21:19.384Z,56.25
2022-10-25T05:22:07.709Z,61.88
2022-10-25T05:23:13.765Z,61.88
2022-10-25T05:24:08.605Z,61.88
2022-10-25T05:25:10.134Z,61.88
2022-10-25T05:26:10.111Z,67.50
2022-10-25T05:27:10.646Z,67.50
2022-10-25T05:28:11.155Z,67.50
2022-10-25T05:29:11.735Z,73.12
2022-10-25T05:30:12.243Z,73.12
2022-10-25T05:31:12.972Z,73.12
2022-10-25T05:32:13.797Z,78.75
2022-10-25T05:33:14.463Z,78.75
2022-10-25T05:34:19.866Z,78.75
2022-10-25T05:35:19.620Z,78.75
2022-10-25T05:36:25.950Z,84.38
2022-10-25T05:37:17.694Z,84.38
2022-10-25T05:38:18.205Z,90.00
2022-10-25T05:39:18.712Z,90.00
2022-10-25T05:40:19.257Z,90.00
2022-10-25T05:41:19.803Z,90.00
2022-10-25T05:42:20.305Z,90.00
2022-10-25T05:43:20.991Z,95.62
2022-10-25T05:44:21.491Z,95.62
2022-10-25T05:45:30.631Z,101.25
2022-10-25T05:46:22.668Z,106.88
2022-10-25T05:47:26.004Z,106.88
2022-10-25T05:48:23.701Z,112.50
2022-10-25T05:49:25.147Z,123.75
2022-10-25T05:50:24.878Z,118.12
2022-10-25T05:51:33.202Z,123.75
2022-10-25T05:52:26.313Z,129.38
2022-10-25T05:53:26.818Z,129.38
2022-10-25T05:54:27.314Z,135.00
2022-10-25T05:55:27.818Z,140.62
2022-10-25T05:56:28.356Z,151.88
2022-10-25T05:57:36.896Z,202.50
2022-10-25T05:58:36.088Z,286.88
2022-10-25T05:59:30.629Z,360.00
2022-10-25T06:00:40.779Z,405.00
2022-10-25T06:01:32.369Z,438.75
2022-10-25T06:02:33.079Z,466.88
2022-10-25T06:05:40.549Z,551.25
2022-10-25T06:06:43.099Z,573.75
2022-10-25T06:08:01.394Z,590.62
2022-10-25T06:12:44.288Z,669.38
2022-10-25T06:13:46.298Z,686.25
2022-10-25T06:14:50.225Z,708.75
2022-10-25T06:16:09.330Z,725.62
2022-10-25T06:16:48.329Z,748.12
2022-10-25T06:17:51.226Z,776.25
2022-10-25T06:18:50.140Z,815.62
2022-10-25T06:19:50.237Z,888.75
2022-10-25T06:20:50.800Z,939.38
2022-10-25T06:21:51.318Z,990.00
2022-10-25T06:22:51.852Z,1029.38
2022-10-25T06:23:52.438Z,1023.75
2022-10-25T06:24:52.948Z,1040.62
2022-10-25T06:25:53.446Z,1096.88
2022-10-25T06:26:53.941Z,1141.88
2022-10-25T06:27:54.464Z,1181.25
2022-10-25T06:28:54.973Z,1186.88
2022-10-25T06:29:55.474Z,1192.50
2022-10-25T06:30:55.978Z,1231.88
2022-10-25T06:31:56.654Z,1260.00
2022-10-25T06:32:58.990Z,1248.75
2022-10-25T06:33:57.795Z,1260.00
2022-10-25T06:35:04.197Z,1254.38
2022-10-25T06:35:58.835Z,1265.62
2022-10-25T06:36:59.348Z,1282.50
2022-10-25T06:37:59.885Z,1310.62
2022-10-25T06:39:05.771Z,1350.00
2022-10-25T06:40:01.296Z,1366.88
2022-10-25T06:41:01.819Z,1378.12
2022-10-25T06:42:04.316Z,1355.62
2022-10-25T06:43:13.397Z,1366.88
2022-10-25T06:44:06.387Z,1383.75
2022-10-25T06:45:04.607Z,1389.38
2022-10-25T06:46:05.118Z,1411.88
2022-10-25T06:47:16.811Z,1462.50
2022-10-25T06:48:06.481Z,1524.38
2022-10-25T06:49:07.312Z,1586.25
2022-10-25T06:51:07.359Z,1575.00
2022-10-25T06:52:08.862Z,1575.00
2022-10-25T06:53:09.458Z,1597.50
2022-10-25T06:54:09.988Z,1591.88
2022-10-25T06:55:10.578Z,1636.88
2022-10-25T06:56:14.462Z,1665.00
2022-10-25T06:57:11.785Z,1631.25
2022-10-25T06:58:12.318Z,1653.75
2022-10-25T06:59:12.969Z,1687.50
2022-10-25T07:00:13.465Z,1681.88
2022-10-25T07:01:14.152Z,1710.00
2022-10-25T07:02:18.142Z,1755.00
2022-10-25T07:03:15.754Z,1771.88
2022-10-25T07:04:16.294Z,1760.62
2022-10-25T07:05:16.843Z,1766.25
2022-10-25T07:06:17.488Z,1845.00
2022-10-25T07:07:18.089Z,1878.75
2022-10-25T07:08:28.261Z,1873.12
2022-10-25T07:09:34.641Z,1935.00
2022-10-25T07:10:20.273Z,1957.50
2022-10-25T07:11:20.819Z,1918.12
2022-10-25T07:12:21.356Z,1985.62
2022-10-25T07:13:22.072Z,2075.62
2022-10-25T07:14:22.650Z,2131.88
2022-10-25T07:15:35.451Z,2233.12
2022-10-25T07:16:24.035Z,2362.50
2022-10-25T07:17:24.548Z,2362.50
2022-10-25T07:18:25.213Z,2311.88
2022-10-25T07:19:25.722Z,2295.00
2022-10-25T07:20:26.329Z,2311.88
2022-10-25T07:21:26.883Z,2323.12
2022-10-25T07:22:28.475Z,2323.12
2022-10-25T07:23:28.512Z,2306.25
2022-10-25T07:24:29.028Z,2334.38
2022-10-25T07:25:29.586Z,2362.50
2022-10-25T07:26:30.955Z,2373.75
2022-10-25T07:27:30.728Z,2300.62
2022-10-25T07:28:31.262Z,2250.00
2022-10-25T07:29:31.764Z,2373.75
2022-10-25T07:30:32.272Z,2356.88
2022-10-25T07:31:32.777Z,2368.12
2022-10-25T07:32:33.296Z,2469.38
2022-10-25T07:33:33.853Z,2593.12
2022-10-25T07:34:34.360Z,2497.50
2022-10-25T07:35:41.983Z,2413.12
2022-10-25T07:36:51.187Z,2463.75
2022-10-25T07:37:36.629Z,2491.88
2022-10-25T07:38:45.836Z,2469.38
2022-10-25T07:39:37.821Z,2475.00
2022-10-25T07:40:38.369Z,2542.50
2022-10-25T07:41:38.864Z,2520.00
2022-10-25T07:42:39.425Z,2446.88
2022-10-25T07:43:39.971Z,2458.12
2022-10-25T07:44:40.515Z,2508.75
2022-10-25T07:47:29.902Z,2559.38
2022-10-25T07:48:32.074Z,2576.25
2022-10-25T07:49:33.762Z,2626.88
2022-10-25T07:50:33.866Z,2553.75
2022-10-25T07:51:40.877Z,2520.00
2022-10-25T07:52:34.254Z,2536.88
2022-10-25T07:53:39.768Z,2553.75
2022-10-25T07:54:35.946Z,2553.75
2022-10-25T07:55:36.678Z,2503.12
2022-10-25T07:56:37.253Z,2452.50
2022-10-25T07:57:37.751Z,2396.25
2022-10-25T07:58:38.259Z,1890.00
2022-10-25T07:59:38.798Z,1226.25
2022-10-25T08:00:39.309Z,984.38
2022-10-25T08:01:40.932Z,933.75
2022-10-25T08:02:43.446Z,888.75
2022-10-25T08:03:41.197Z,855.00
2022-10-25T08:04:41.758Z,810.00
2022-10-25T08:05:42.295Z,787.50
2022-10-25T08:06:43.073Z,759.38
2022-10-25T08:07:43.659Z,742.50
2022-10-25T08:08:44.183Z,725.62
2022-10-25T08:09:45.061Z,708.75
2022-10-25T08:22:23.526Z,523.12
2022-10-25T08:23:24.544Z,511.88
2022-10-25T08:24:25.562Z,506.25
2022-10-25T08:25:33.883Z,500.62
2022-10-25T08:26:26.521Z,500.62
2022-10-25T08:27:27.116Z,495.00
2022-10-25T08:28:27.733Z,483.75
2022-10-25T08:29:28.246Z,483.75
2022-10-25T08:30:28.753Z,478.12
2022-10-25T08:31:29.311Z,472.50
2022-10-25T08:32:30.949Z,472.50
2022-10-25T08:33:30.459Z,472.50
2022-10-25T08:34:33.164Z,466.88
2022-10-25T08:35:31.836Z,466.88
2022-10-25T08:36:32.456Z,461.25
2022-10-25T08:37:33.003Z,461.25
2022-10-25T08:38:33.506Z,461.25
2022-10-25T08:39:34.058Z,461.25
2022-10-25T08:40:34.752Z,461.25
2022-10-25T08:41:36.340Z,466.88
2022-10-25T08:42:35.832Z,466.88
2022-10-25T08:43:36.331Z,472.50
2022-10-25T08:44:44.591Z,472.50
2022-10-25T08:45:37.856Z,478.12
2022-10-25T08:46:45.693Z,483.75
2022-10-25T08:47:39.376Z,489.38
2022-10-25T08:48:39.879Z,500.62
2022-10-25T08:49:40.539Z,517.50
2022-10-25T08:50:40.907Z,540.00
2022-10-25T08:51:41.558Z,551.25
2022-10-25T08:52:42.123Z,579.38
2022-10-25T08:53:42.690Z,601.88
2022-10-25T08:54:43.215Z,646.88
2022-10-25T08:55:58.740Z,725.62
2022-10-25T08:57:14.051Z,860.62
2022-10-25T08:57:45.849Z,1057.50
2022-10-25T08:58:46.078Z,1293.75
2022-10-25T08:59:46.586Z,1490.62
2022-10-25T09:00:47.092Z,1597.50
2022-10-25T09:01:47.710Z,1659.38
2022-10-25T09:02:48.382Z,1710.00
2022-10-25T09:03:48.880Z,1766.25
2022-10-25T09:04:49.425Z,1816.88
2022-10-25T09:05:49.933Z,1845.00
2022-10-25T09:06:50.506Z,1873.12
2022-10-25T09:07:51.057Z,1901.25
2022-10-25T09:08:52.586Z,1929.38
2022-10-25T09:09:52.516Z,1963.12
2022-10-25T09:10:52.842Z,1980.00
2022-10-25T09:11:53.424Z,2008.12
2022-10-25T09:12:54.075Z,2025.00
2022-10-25T09:13:54.765Z,2058.75
2022-10-25T09:14:55.322Z,2070.00
2022-10-25T09:15:55.948Z,2092.50
2022-10-25T09:16:56.444Z,2115.00
2022-10-25T09:17:57.031Z,2126.25
2022-10-25T09:19:02.153Z,2143.12
2022-10-25T09:19:58.486Z,2137.50
2022-10-25T09:20:59.278Z,2148.75
2022-10-25T09:22:00.797Z,2160.00
2022-10-25T09:23:01.446Z,2182.50
2022-10-25T09:24:01.169Z,2188.12
2022-10-25T09:25:01.751Z,2193.75
2022-10-25T09:26:09.856Z,2205.00
2022-10-25T09:27:03.150Z,2210.62
2022-10-25T09:28:05.494Z,2216.25
2022-10-25T09:29:10.396Z,2221.88
2022-10-25T09:32:19.684Z,2255.62
2022-10-25T09:33:18.741Z,2261.25
2022-10-25T09:34:20.694Z,2266.88
2022-10-25T09:35:20.192Z,2272.50
2022-10-25T09:36:20.714Z,2266.88
2022-10-25T09:37:21.362Z,2283.75
2022-10-25T09:38:45.521Z,2283.75
2022-10-25T09:39:22.569Z,2278.12
2022-10-25T09:40:23.115Z,2278.12
2022-10-25T09:41:23.640Z,2283.75
2022-10-25T09:42:30.178Z,2289.38
2022-10-25T09:43:25.478Z,2289.38
2022-10-25T09:44:25.978Z,2278.12
2022-10-25T09:45:26.558Z,2289.38
2022-10-25T09:46:27.360Z,2283.75
2022-10-25T09:47:27.796Z,2283.75
2022-10-25T09:48:28.330Z,2272.50
2022-10-25T09:49:28.827Z,2272.50
2022-10-25T09:50:29.333Z,2278.12
2022-10-25T09:51:29.834Z,2266.88
2022-10-25T09:52:30.675Z,2250.00
2022-10-25T09:53:31.002Z,2244.38
2022-10-25T09:54:32.237Z,2238.75
2022-10-25T09:55:32.205Z,2227.50
2022-10-25T09:56:36.461Z,2227.50
2022-10-25T09:57:33.599Z,2205.00
2022-10-25T09:58:34.140Z,2193.75
2022-10-25T09:59:34.648Z,2182.50
2022-10-25T10:00:35.198Z,2171.25
2022-10-25T10:01:35.860Z,2165.62
2022-10-25T10:02:36.575Z,2165.62
2022-10-25T10:03:37.224Z,2143.12
2022-10-25T10:04:37.890Z,2137.50
2022-10-25T10:05:38.397Z,2126.25
2022-10-25T10:06:38.905Z,2103.75
2022-10-25T10:07:39.415Z,2086.88
2022-10-25T10:08:40.016Z,2086.88
2022-10-25T10:09:44.933Z,2075.62
2022-10-25T10:10:41.379Z,2064.38
2022-10-25T10:11:41.877Z,2047.50
2022-10-25T10:12:42.376Z,2036.25
2022-10-25T10:13:42.931Z,2030.62
2022-10-25T10:14:43.911Z,2008.12
2022-10-25T10:15:43.937Z,2002.50
2022-10-25T10:16:44.430Z,1991.25
2022-10-25T10:17:45.214Z,1980.00
2022-10-25T10:18:45.939Z,1963.12
2022-10-25T10:19:46.461Z,1963.12
2022-10-25T10:20:46.978Z,1935.00
2022-10-25T10:21:47.481Z,1923.75
2022-10-25T10:23:52.979Z,1906.88
2022-10-25T10:24:54.374Z,1901.25
2022-10-25T10:25:51.352Z,1895.62
2022-10-25T10:26:51.994Z,1878.75
2022-10-25T10:27:52.013Z,1867.50
2022-10-25T10:28:52.633Z,1856.25
2022-10-25T10:29:53.227Z,1845.00
2022-10-25T10:30:53.732Z,1833.75
2022-10-25T10:31:54.228Z,1828.12
2022-10-25T10:32:57.129Z,1822.50
2022-10-25T10:33:55.635Z,1811.25
2022-10-25T10:34:56.137Z,1822.50
2022-10-25T10:35:56.641Z,1800.00
2022-10-25T10:36:57.148Z,1794.38
2022-10-25T10:37:57.656Z,1777.50
2022-10-25T10:38:58.223Z,1771.88
2022-10-25T10:39:58.750Z,1777.50
2022-10-25T10:40:59.257Z,1760.62
2022-10-25T10:41:59.791Z,1760.62
2022-10-25T10:43:00.292Z,1760.62
2022-10-25T10:44:00.915Z,1749.38
2022-10-25T10:45:01.420Z,1749.38
2022-10-25T10:46:01.925Z,1766.25
2022-10-25T10:47:02.429Z,1743.75
2022-10-25T10:48:02.933Z,1738.12
2022-10-25T10:49:03.534Z,1749.38
2022-10-25T10:50:04.079Z,1738.12
2022-10-25T10:51:06.604Z,1732.50
2022-10-25T10:52:05.496Z,1743.75
2022-10-25T10:53:06.007Z,1738.12
2022-10-25T10:54:06.872Z,1732.50
2022-10-25T10:55:07.410Z,1743.75
2022-10-25T10:56:07.914Z,1738.12
2022-10-25T10:57:08.438Z,1738.12
2022-10-25T10:58:08.950Z,1749.38
2022-10-25T10:59:09.479Z,1755.00
2022-10-25T11:00:10.133Z,1760.62
2022-10-25T11:01:11.341Z,1749.38
2022-10-25T11:02:11.759Z,1755.00
2022-10-25T11:03:12.421Z,1760.62
2022-10-25T11:04:12.959Z,1766.25
2022-10-25T11:05:13.459Z,1771.88
2022-10-25T11:06:13.961Z,1771.88
2022-10-25T11:07:14.457Z,1783.12
2022-10-25T11:08:14.971Z,1783.12
2022-10-25T11:09:15.570Z,1788.75
2022-10-25T11:10:16.104Z,1800.00
2022-10-25T11:11:16.610Z,1811.25
2022-10-25T11:12:17.116Z,1811.25
2022-10-25T11:13:17.930Z,1856.25
2022-10-25T11:14:18.487Z,1833.75
2022-10-25T11:15:18.988Z,1839.38
2022-10-25T11:16:21.942Z,1833.75
2022-10-25T11:17:20.350Z,1845.00
2022-10-25T11:18:20.847Z,1850.62
2022-10-25T11:19:21.381Z,1856.25
2022-10-25T11:20:21.891Z,1856.25
2022-10-25T11:21:22.390Z,1867.50
2022-10-25T11:22:22.899Z,1873.12
2022-10-25T11:23:23.390Z,1884.38
2022-10-25T11:24:23.982Z,1884.38
2022-10-25T11:25:24.619Z,1884.38
2022-10-25T11:26:25.127Z,1901.25
2022-10-25T11:27:25.630Z,1895.62
2022-10-25T11:28:26.153Z,1895.62
2022-10-25T11:29:26.682Z,1901.25
2022-10-25T11:30:27.226Z,1906.88
2022-10-25T11:31:27.722Z,1906.88
2022-10-25T11:32:28.288Z,1912.50
2022-10-25T11:33:28.812Z,1923.75
2022-10-25T11:34:29.350Z,1929.38
2022-10-25T11:35:29.853Z,1923.75
2022-10-25T11:36:30.354Z,1929.38
2022-10-25T11:37:30.851Z,1935.00
2022-10-25T11:38:31.348Z,1935.00
2022-10-25T11:39:31.969Z,1929.38
2022-10-25T11:40:32.605Z,1935.00
2022-10-25T11:41:33.115Z,1929.38
2022-10-25T11:42:33.615Z,1923.75
2022-10-25T11:43:34.117Z,1923.75
2022-10-25T11:44:34.654Z,1912.50
2022-10-25T11:45:35.159Z,1901.25
2022-10-25T11:46:35.656Z,1901.25
2022-10-25T11:47:38.107Z,1890.00
2022-10-25T11:48:37.044Z,1890.00
2022-10-25T11:49:37.594Z,1890.00
2022-10-25T11:50:38.091Z,1867.50
2022-10-25T11:51:38.601Z,1850.62
2022-10-25T11:52:39.109Z,1850.62
2022-10-25T11:53:39.613Z,1833.75
2022-10-25T11:54:40.142Z,1822.50
2022-10-25T11:55:40.762Z,1805.62
2022-10-25T11:56:41.257Z,1794.38
2022-10-25T11:57:41.779Z,1771.88
2022-10-25T11:58:42.280Z,1755.00
2022-10-25T11:59:42.815Z,1749.38
2022-10-25T12:00:43.314Z,1726.88
2022-10-25T12:01:43.865Z,1721.25
2022-10-25T12:02:44.550Z,1693.12
2022-10-25T12:03:45.189Z,1670.62
2022-10-25T12:04:45.742Z,1653.75
2022-10-25T12:05:46.249Z,1642.50
2022-10-25T12:06:46.749Z,1625.62
2022-10-25T12:07:47.263Z,1608.75
2022-10-25T12:08:47.769Z,1591.88
2022-10-25T12:09:48.352Z,1575.00
2022-10-25T12:10:48.987Z,1563.75
2022-10-25T12:11:49.482Z,1546.88
2022-10-25T12:12:50.410Z,1530.00
2022-10-25T12:13:50.669Z,1513.12
2022-10-25T12:14:51.200Z,1496.25
2022-10-25T12:15:51.701Z,1479.38
2022-10-25T12:16:52.201Z,1479.38
2022-10-25T12:17:52.712Z,1485.00
2022-10-25T12:18:53.215Z,1462.50
2022-10-25T12:19:53.750Z,1456.88
2022-10-25T12:20:54.254Z,1440.00
2022-10-25T12:21:56.735Z,1434.38
2022-10-25T12:22:55.259Z,1428.75
2022-10-25T12:23:55.764Z,1423.12
2022-10-25T12:24:56.351Z,1411.88
2022-10-25T12:25:56.971Z,1406.25
2022-10-25T12:26:57.464Z,1406.25
2022-10-25T12:27:57.974Z,1395.00
2022-10-25T12:28:58.478Z,1395.00
2022-10-25T12:29:59.026Z,1395.00
2022-10-25T12:30:59.534Z,1395.00
2022-10-25T12:32:00.031Z,1389.38
2022-10-25T12:33:00.522Z,1389.38
2022-10-25T12:34:01.035Z,1389.38
2022-10-25T12:35:01.645Z,1389.38
2022-10-25T12:36:02.141Z,1389.38
2022-10-25T12:37:02.633Z,1395.00
2022-10-25T12:38:03.140Z,1395.00
2022-10-25T12:39:03.671Z,1395.00
2022-10-25T12:40:04.286Z,1395.00
2022-10-25T12:41:04.910Z,1400.62
2022-10-25T12:42:05.415Z,1400.62
2022-10-25T12:43:05.920Z,1400.62
2022-10-25T12:44:06.425Z,1406.25
2022-10-25T12:45:07.104Z,1411.88
2022-10-25T12:46:07.608Z,1406.25
2022-10-25T12:47:08.109Z,1411.88
2022-10-25T12:48:08.604Z,1406.25
2022-10-25T12:49:09.112Z,1406.25
2022-10-25T12:50:09.739Z,1406.25
2022-10-25T12:51:12.074Z,1400.62
2022-10-25T12:52:11.092Z,1406.25
2022-10-25T12:53:11.600Z,1400.62
2022-10-25T12:54:12.108Z,1400.62
2022-10-25T12:55:12.661Z,1389.38
2022-10-25T12:56:13.283Z,1400.62
2022-10-25T12:57:13.805Z,1383.75
2022-10-25T12:58:14.308Z,1378.12
2022-10-25T12:59:14.819Z,1372.50
2022-10-25T13:00:15.434Z,1361.25
2022-10-25T13:01:16.014Z,1355.62
2022-10-25T13:02:16.572Z,1350.00
2022-10-25T13:03:19.415Z,1344.38
2022-10-25T13:04:17.739Z,1338.75
2022-10-25T13:05:18.291Z,1321.88
2022-10-25T13:06:18.811Z,1310.62
2022-10-25T13:08:20.171Z,1293.75
2022-10-25T13:09:22.291Z,1293.75
2022-10-25T13:10:21.701Z,1276.88
2022-10-25T13:11:22.426Z,1265.62
2022-10-25T13:12:22.928Z,1254.38
2022-10-25T13:13:23.440Z,1231.88
2022-10-25T13:14:23.939Z,1220.62